Strait of Georgia - north of Nanaimo: Past 24 Hour Conditions

 

Halibut Bank - 46146

12:00 AM PDT 03 September 2014Buoy position: 49.34N 123.72W
This table is a summary of hourly weather conditions for the past 24 hours.
Date / Time
(PDT)
Wind(knots) Wave height(m) Wave period(s) Pressure(kPa) Air tempC) Water tempC)
03 September 2014
0:00 WNW 18 gust 21 0.7 4.0 101.1 15 17
02 September 2014
23:00 WNW 18 gust 21 0.7 4.0 101.1 15 17
22:00 WNW 16 gust 21 0.6 4.0 101.0 15 17
21:00 NW 19 gust 23 0.7 4.0 101.0 16 17
20:00 WNW 19 gust 23 0.7 4.0 100.9 16 17
19:00 WNW 19 gust 23 0.7 4.0 100.9 15 17
18:00 W 19 gust 23 0.6 3.0 100.9 15 17
17:00 W 16 gust 18 0.4 3.0 100.9 15 17
16:00 WNW 14 gust 16 0.2 3.0 100.9 15 16
15:00 W 8 gust 12 0.2 3.0 101.0 14 16
14:00 W 8 gust 10 0.2 3.0 101.0 14 17
13:00 WNW 6 gust 8 0.2 3.0 101.0 14 17
12:00 W 8 gust 12 0.2 3.0 101.1 15 17
11:00 N 4 gust 6 0.2 3.0 101.1 15 17
10:00 W 10 gust 16 0.2 3.0 101.1 15 17
9:00 W 8 gust 8 0.2 3.0 101.2 15 17
8:00 W 10 gust 12 0.3 3.0 101.2 15 17
7:00 W 12 gust 12 0.3 3.0 101.2 15 17
6:00 W 14 gust 16 0.3 4.0 101.3 15 17
5:00 W 12 gust 14 0.4 4.0 101.3 15 17
4:00 W 12 gust 16 0.4 4.0 101.4 15 17
3:00 W 16 gust 18 0.4 3.0 101.4 15 17
2:00 W 14 gust 16 0.3 3.0 101.4 15 17
1:00 W 8 gust 10 0.1 2.0 101.5 16 17
0:00 NNW 8 gust 10 0.1 2.0 101.5 16 17
 
Map of Pacific - Georgia Basin marine weather areas Tsawwassen Ferry Terminal Sentry Shoal - 46131 Halibut Bank - 46146 La Perouse Bank - 46206 Discovery Island Esquimalt Harbour Kelp Reefs Malahat Race Rocks Lightstation Saturna Island Sheringham Point University of Victoria Victoria Gonzales Victoria Int'l Airport Ballenas Islands Campbell River Airport Comox Airport Entrance Island Fanny Island Nanaimo Airport Sisters Islets Estevan Point Tofino Airport Grief Point Powell River Airport Sechelt Point Atkinson Sand Heads Lightstation Vancouver Harbour Vancouver Int'l Airport West Vancouver Port Alberni Howe Sound - Pam Rocks Squamish Airport